sensor_id;sensor_type;location;lat;lon;timestamp;pressure;altitude;pressure_sealevel;temperature;humidity
76114;BME280;64845;53.086;5.834;2023-06-22T00:01:14;102021.34;;;18.31;71.18
76114;BME280;64845;53.086;5.834;2023-06-22T00:03:40;102031.38;;;18.29;71.22
76114;BME280;64845;53.086;5.834;2023-06-22T00:06:05;102027.06;;;18.25;71.47
76114;BME280;64845;53.086;5.834;2023-06-22T00:08:31;102026.25;;;18.23;71.37
76114;BME280;64845;53.086;5.834;2023-06-22T00:10:56;102030.88;;;18.21;71.35
76114;BME280;64845;53.086;5.834;2023-06-22T00:13:21;102030.00;;;18.20;71.39
76114;BME280;64845;53.086;5.834;2023-06-22T00:15:47;102037.47;;;18.15;71.41
76114;BME280;64845;53.086;5.834;2023-06-22T00:18:12;102037.63;;;18.12;71.41
76114;BME280;64845;53.086;5.834;2023-06-22T00:20:38;102034.22;;;18.08;71.66
76114;BME280;64845;53.086;5.834;2023-06-22T00:23:05;102039.78;;;18.05;71.55
76114;BME280;64845;53.086;5.834;2023-06-22T00:25:37;102051.66;;;18.03;71.63
76114;BME280;64845;53.086;5.834;2023-06-22T00:28:05;102060.69;;;18.02;71.51
76114;BME280;64845;53.086;5.834;2023-06-22T00:30:31;102061.84;;;17.96;71.67
76114;BME280;64845;53.086;5.834;2023-06-22T00:32:57;102062.78;;;17.95;71.72
76114;BME280;64845;53.086;5.834;2023-06-22T00:35:23;102066.53;;;17.92;71.77
76114;BME280;64845;53.086;5.834;2023-06-22T00:37:55;102072.97;;;17.90;71.70
76114;BME280;64845;53.086;5.834;2023-06-22T00:40:29;102075.72;;;17.88;71.83
76114;BME280;64845;53.086;5.834;2023-06-22T00:42:55;102081.22;;;17.87;71.76
76114;BME280;64845;53.086;5.834;2023-06-22T00:45:21;102076.78;;;17.86;71.85
76114;BME280;64845;53.086;5.834;2023-06-22T00:47:49;102074.06;;;17.86;71.97
76114;BME280;64845;53.086;5.834;2023-06-22T00:50:20;102075.88;;;17.85;71.92
76114;BME280;64845;53.086;5.834;2023-06-22T00:52:51;102076.88;;;17.84;71.90
76114;BME280;64845;53.086;5.834;2023-06-22T00:55:16;102079.63;;;17.82;72.10
76114;BME280;64845;53.086;5.834;2023-06-22T00:57:45;102078.81;;;17.80;72.09
76114;BME280;64845;53.086;5.834;2023-06-22T01:00:11;102075.31;;;17.78;72.37
76114;BME280;64845;53.086;5.834;2023-06-22T01:02:44;102072.69;;;17.77;72.18
76114;BME280;64845;53.086;5.834;2023-06-22T01:05:12;102062.94;;;17.74;72.36
76114;BME280;64845;53.086;5.834;2023-06-22T01:10:44;102068.50;;;17.71;72.41
76114;BME280;64845;53.086;5.834;2023-06-22T01:13:21;102054.97;;;17.71;72.60
76114;BME280;64845;53.086;5.834;2023-06-22T01:15:57;102053.13;;;17.72;72.54
76114;BME280;64845;53.086;5.834;2023-06-22T01:18:29;102055.84;;;17.72;72.71
76114;BME280;64845;53.086;5.834;2023-06-22T01:20:55;102054.97;;;17.71;72.75
76114;BME280;64845;53.086;5.834;2023-06-22T01:23:50;102055.84;;;17.72;72.75
76114;BME280;64845;53.086;5.834;2023-06-22T01:26:20;102054.97;;;17.71;72.92
76114;BME280;64845;53.086;5.834;2023-06-22T01:28:51;102055.84;;;17.72;72.98
76114;BME280;64845;53.086;5.834;2023-06-22T01:31:26;102054.03;;;17.72;73.32
76114;BME280;64845;53.086;5.834;2023-06-22T01:37:15;102045.13;;;17.70;73.53
76114;BME280;64845;53.086;5.834;2023-06-22T01:39:40;102043.28;;;17.71;73.40
76114;BME280;64845;53.086;5.834;2023-06-22T01:42:06;102040.59;;;17.71;73.55
76114;BME280;64845;53.086;5.834;2023-06-22T01:44:32;102045.13;;;17.70;73.74
76114;BME280;64845;53.086;5.834;2023-06-22T01:46:58;102034.31;;;17.70;73.85
76114;BME280;64845;53.086;5.834;2023-06-22T01:49:24;102037.88;;;17.71;73.76
76114;BME280;64845;53.086;5.834;2023-06-22T01:51:50;102042.47;;;17.68;73.81
76114;BME280;64845;53.086;5.834;2023-06-22T01:54:16;102038.91;;;17.68;73.84
76114;BME280;64845;53.086;5.834;2023-06-22T01:56:41;102038.97;;;17.66;73.94
76114;BME280;64845;53.086;5.834;2023-06-22T01:59:15;102041.69;;;17.66;73.92
76114;BME280;64845;53.086;5.834;2023-06-22T02:01:47;102044.38;;;17.66;74.11
76114;BME280;64845;53.086;5.834;2023-06-22T02:04:27;102042.63;;;17.65;74.11
76114;BME280;64845;53.086;5.834;2023-06-22T02:06:59;102038.13;;;17.66;74.12
76114;BME280;64845;53.086;5.834;2023-06-22T02:09:29;102043.63;;;17.64;74.07
76114;BME280;64845;53.086;5.834;2023-06-22T02:11:56;102035.50;;;17.64;74.13
76114;BME280;64845;53.086;5.834;2023-06-22T02:14:24;102034.63;;;17.64;74.17
76114;BME280;64845;53.086;5.834;2023-06-22T02:16:51;102038.28;;;17.63;74.21
76114;BME280;64845;53.086;5.834;2023-06-22T02:19:16;102033.81;;;17.62;74.20
76114;BME280;64845;53.086;5.834;2023-06-22T02:21:44;102034.75;;;17.61;74.42
76114;BME280;64845;53.086;5.834;2023-06-22T02:24:10;102029.44;;;17.59;74.35
76114;BME280;64845;53.086;5.834;2023-06-22T02:26:36;102031.25;;;17.59;74.29
76114;BME280;64845;53.086;5.834;2023-06-22T02:29:03;102025.16;;;17.55;74.47
76114;BME280;64845;53.086;5.834;2023-06-22T02:31:29;102026.91;;;17.56;74.42
76114;BME280;64845;53.086;5.834;2023-06-22T02:33:58;102020.59;;;17.56;74.62
76114;BME280;64845;53.086;5.834;2023-06-22T02:36:25;102022.44;;;17.55;74.66
76114;BME280;64845;53.086;5.834;2023-06-22T02:38:52;102027.00;;;17.55;74.63
76114;BME280;64845;53.086;5.834;2023-06-22T02:41:17;102019.88;;;17.52;74.76
76114;BME280;64845;53.086;5.834;2023-06-22T02:43:46;102027.13;;;17.51;74.71
76114;BME280;64845;53.086;5.834;2023-06-22T02:46:13;102030.94;;;17.47;74.68
76114;BME280;64845;53.086;5.834;2023-06-22T02:48:42;102037.28;;;17.46;74.85
76114;BME280;64845;53.086;5.834;2023-06-22T02:51:07;102036.47;;;17.44;74.78
76114;BME280;64845;53.086;5.834;2023-06-22T02:53:33;102039.25;;;17.43;74.73
76114;BME280;64845;53.086;5.834;2023-06-22T02:56:00;102033.06;;;17.41;74.75
76114;BME280;64845;53.086;5.834;2023-06-22T02:58:26;102042.97;;;17.40;74.61
76114;BME280;64845;53.086;5.834;2023-06-22T03:00:52;102044.00;;;17.37;74.68
76114;BME280;64845;53.086;5.834;2023-06-22T03:03:18;102049.41;;;17.37;74.72
76114;BME280;64845;53.086;5.834;2023-06-22T03:05:44;102044.06;;;17.36;74.72
76114;BME280;64845;53.086;5.834;2023-06-22T03:08:09;102052.16;;;17.36;74.87
76114;BME280;64845;53.086;5.834;2023-06-22T03:10:35;102041.34;;;17.36;74.77
76114;BME280;64845;53.086;5.834;2023-06-22T03:13:00;102042.34;;;17.35;74.88
76114;BME280;64845;53.086;5.834;2023-06-22T03:15:26;102032.50;;;17.34;74.98
76114;BME280;64845;53.086;5.834;2023-06-22T03:17:54;102038.84;;;17.33;75.08
76114;BME280;64845;53.086;5.834;2023-06-22T03:20:20;102029.84;;;17.32;75.08
76114;BME280;64845;53.086;5.834;2023-06-22T03:22:45;102031.69;;;17.32;75.18
76114;BME280;64845;53.086;5.834;2023-06-22T03:25:10;102040.66;;;17.32;75.12
76114;BME280;64845;53.086;5.834;2023-06-22T03:27:38;102036.19;;;17.31;75.13
76114;BME280;64845;53.086;5.834;2023-06-22T03:30:06;102034.53;;;17.29;75.52
76114;BME280;64845;53.086;5.834;2023-06-22T03:32:32;102038.19;;;17.28;75.36
76114;BME280;64845;53.086;5.834;2023-06-22T03:34:57;102038.31;;;17.25;75.46
76114;BME280;64845;53.086;5.834;2023-06-22T03:37:24;102044.66;;;17.24;75.41
76114;BME280;64845;53.086;5.834;2023-06-22T03:39:50;102031.25;;;17.22;75.41
76114;BME280;64845;53.086;5.834;2023-06-22T03:42:16;102028.56;;;17.22;75.44
76114;BME280;64845;53.086;5.834;2023-06-22T03:44:41;102033.06;;;17.21;75.63
76114;BME280;64845;53.086;5.834;2023-06-22T03:47:07;102031.31;;;17.20;75.68
76114;BME280;64845;53.086;5.834;2023-06-22T03:49:33;102029.66;;;17.18;75.63
76114;BME280;64845;53.086;5.834;2023-06-22T03:52:00;102023.44;;;17.16;75.79
76114;BME280;64845;53.086;5.834;2023-06-22T03:54:25;102020.88;;;17.13;75.80
76114;BME280;64845;53.086;5.834;2023-06-22T03:56:51;102018.28;;;17.11;75.82
76114;BME280;64845;53.086;5.834;2023-06-22T03:59:16;102030.88;;;17.11;75.92
76114;BME280;64845;53.086;5.834;2023-06-22T04:01:42;102026.41;;;17.10;76.01
76114;BME280;64845;53.086;5.834;2023-06-22T04:04:07;102021.13;;;17.08;76.03
76114;BME280;64845;53.086;5.834;2023-06-22T04:06:32;102029.25;;;17.06;76.06
76114;BME280;64845;53.086;5.834;2023-06-22T04:08:59;102034.75;;;17.05;76.14
76114;BME280;64845;53.086;5.834;2023-06-22T04:11:26;102039.28;;;17.04;75.99
76114;BME280;64845;53.086;5.834;2023-06-22T04:13:51;102033.94;;;17.03;76.27
76114;BME280;64845;53.086;5.834;2023-06-22T04:16:17;102037.66;;;17.00;76.24
76114;BME280;64845;53.086;5.834;2023-06-22T04:18:42;102040.41;;;16.99;76.47
76114;BME280;64845;53.086;5.834;2023-06-22T04:21:07;102035.19;;;16.96;76.17
76114;BME280;64845;53.086;5.834;2023-06-22T04:23:33;102032.50;;;16.96;76.25
76114;BME280;64845;53.086;5.834;2023-06-22T04:25:58;102030.72;;;16.95;76.09
76114;BME280;64845;53.086;5.834;2023-06-22T04:28:27;102024.50;;;16.92;76.27
76114;BME280;64845;53.086;5.834;2023-06-22T04:30:52;102022.81;;;16.90;76.14
76114;BME280;64845;53.086;5.834;2023-06-22T04:33:18;102011.06;;;16.91;76.33
76114;BME280;64845;53.086;5.834;2023-06-22T04:35:46;102011.97;;;16.91;76.29
76114;BME280;64845;53.086;5.834;2023-06-22T04:38:12;102012.78;;;16.94;76.42
76114;BME280;64845;53.086;5.834;2023-06-22T04:40:40;102018.03;;;16.97;76.21
76114;BME280;64845;53.086;5.834;2023-06-22T04:43:06;102013.53;;;16.97;76.40
76114;BME280;64845;53.086;5.834;2023-06-22T04:45:34;102011.53;;;17.01;76.46
76114;BME280;64845;53.086;5.834;2023-06-22T04:48:03;102012.34;;;17.03;76.42
76114;BME280;64845;53.086;5.834;2023-06-22T04:50:28;102018.63;;;17.03;76.51
76114;BME280;64845;53.086;5.834;2023-06-22T04:52:54;102019.50;;;17.04;76.45
76114;BME280;64845;53.086;5.834;2023-06-22T04:55:19;102013.06;;;17.06;76.54
76114;BME280;64845;53.086;5.834;2023-06-22T04:57:45;102016.56;;;17.09;76.68
76114;BME280;64845;53.086;5.834;2023-06-22T05:00:15;102011.03;;;17.12;76.66
76114;BME280;64845;53.086;5.834;2023-06-22T05:02:43;102023.53;;;17.14;76.42
76114;BME280;64845;53.086;5.834;2023-06-22T05:05:09;102020.66;;;17.17;76.46
76114;BME280;64845;53.086;5.834;2023-06-22T05:07:39;102018.75;;;17.19;76.56
76114;BME280;64845;53.086;5.834;2023-06-22T05:10:09;102011.41;;;17.23;76.53
76114;BME280;64845;53.086;5.834;2023-06-22T05:12:35;102015.69;;;17.27;76.63
76114;BME280;64845;53.086;5.834;2023-06-22T05:15:01;102017.38;;;17.30;76.58
76114;BME280;64845;53.086;5.834;2023-06-22T05:17:27;102019.00;;;17.34;76.66
76114;BME280;64845;53.086;5.834;2023-06-22T05:19:53;102020.56;;;17.38;76.64
76114;BME280;64845;53.086;5.834;2023-06-22T05:22:18;102016.78;;;17.42;76.65
76114;BME280;64845;53.086;5.834;2023-06-22T05:24:44;102022.84;;;17.47;76.37
76114;BME280;64845;53.086;5.834;2023-06-22T05:27:10;102009.09;;;17.52;76.55
76114;BME280;64845;53.086;5.834;2023-06-22T05:29:38;102015.16;;;17.57;76.29
76114;BME280;64845;53.086;5.834;2023-06-22T05:32:04;102019.34;;;17.63;76.51
76114;BME280;64845;53.086;5.834;2023-06-22T05:34:30;102014.59;;;17.68;76.51
76114;BME280;64845;53.086;5.834;2023-06-22T05:36:55;102014.31;;;17.74;76.38
76114;BME280;64845;53.086;5.834;2023-06-22T05:39:21;102012.31;;;17.78;76.41
76114;BME280;64845;53.086;5.834;2023-06-22T05:41:46;102013.81;;;17.83;76.33
76114;BME280;64845;53.086;5.834;2023-06-22T05:44:12;102016.22;;;17.90;76.34
76114;BME280;64845;53.086;5.834;2023-06-22T05:46:40;102009.63;;;17.95;76.30
76114;BME280;64845;53.086;5.834;2023-06-22T05:49:09;102020.06;;;18.03;76.24
76114;BME280;64845;53.086;5.834;2023-06-22T05:51:35;102009.91;;;18.08;76.40
76114;BME280;64845;53.086;5.834;2023-06-22T05:54:00;102017.66;;;18.15;76.19
76114;BME280;64845;53.086;5.834;2023-06-22T05:56:25;102022.75;;;18.21;76.33
76114;BME280;64845;53.086;5.834;2023-06-22T05:58:51;102016.16;;;18.26;76.24
76114;BME280;64845;53.086;5.834;2023-06-22T06:01:16;102016.78;;;18.32;76.02
76114;BME280;64845;53.086;5.834;2023-06-22T06:03:42;102011.94;;;18.38;76.22
76114;BME280;64845;53.086;5.834;2023-06-22T06:06:07;102017.88;;;18.45;76.11
76114;BME280;64845;53.086;5.834;2023-06-22T06:08:33;102022.19;;;18.49;76.10
76114;BME280;64845;53.086;5.834;2023-06-22T06:10:58;102023.75;;;18.53;76.17
76114;BME280;64845;53.086;5.834;2023-06-22T06:13:24;102020.81;;;18.58;76.07
76114;BME280;64845;53.086;5.834;2023-06-22T06:15:49;102021.53;;;18.62;76.13
76114;BME280;64845;53.086;5.834;2023-06-22T06:18:17;102028.50;;;18.66;76.32
76114;BME280;64845;53.086;5.834;2023-06-22T06:20:42;102034.63;;;18.69;76.05
76114;BME280;64845;53.086;5.834;2023-06-22T06:23:08;102043.56;;;18.71;75.96
76114;BME280;64845;53.086;5.834;2023-06-22T06:25:33;102043.34;;;18.75;75.98
76114;BME280;64845;53.086;5.834;2023-06-22T06:27:58;102044.09;;;18.78;75.85
76114;BME280;64845;53.086;5.834;2023-06-22T06:30:24;102033.97;;;18.82;75.90
76114;BME280;64845;53.086;5.834;2023-06-22T06:32:50;102032.75;;;18.87;75.94
76114;BME280;64845;53.086;5.834;2023-06-22T06:35:15;102031.72;;;18.90;75.88
76114;BME280;64845;53.086;5.834;2023-06-22T06:37:43;102027.81;;;18.96;75.99
76114;BME280;64845;53.086;5.834;2023-06-22T06:40:10;102037.53;;;19.00;75.64
76114;BME280;64845;53.086;5.834;2023-06-22T06:42:37;102030.88;;;19.06;75.88
76114;BME280;64845;53.086;5.834;2023-06-22T06:45:06;102031.50;;;19.11;75.60
76114;BME280;64845;53.086;5.834;2023-06-22T06:47:31;102028.69;;;19.12;75.64
76114;BME280;64845;53.086;5.834;2023-06-22T06:49:57;102024.94;;;19.15;75.64
76114;BME280;64845;53.086;5.834;2023-06-22T06:52:22;102028.28;;;19.20;75.41
76114;BME280;64845;53.086;5.834;2023-06-22T06:54:48;102031.59;;;19.25;75.43
76114;BME280;64845;53.086;5.834;2023-06-22T06:57:13;102028.63;;;19.30;75.31
76114;BME280;64845;53.086;5.834;2023-06-22T06:59:40;102023.72;;;19.37;75.57
76114;BME280;64845;53.086;5.834;2023-06-22T07:02:05;102024.34;;;19.42;75.42
76114;BME280;64845;53.086;5.834;2023-06-22T07:04:31;102028.44;;;19.49;75.09
76114;BME280;64845;53.086;5.834;2023-06-22T07:06:56;102025.38;;;19.55;75.06
76114;BME280;64845;53.086;5.834;2023-06-22T07:09:21;102020.38;;;19.63;75.06
76114;BME280;64845;53.086;5.834;2023-06-22T07:11:47;102029.91;;;19.71;75.07
76114;BME280;64845;53.086;5.834;2023-06-22T07:14:12;102024.09;;;19.77;74.71
76114;BME280;64845;53.086;5.834;2023-06-22T07:16:37;102029.16;;;19.83;74.75
76114;BME280;64845;53.086;5.834;2023-06-22T07:19:03;102034.34;;;19.88;74.41
76114;BME280;64845;53.086;5.834;2023-06-22T07:21:28;102034.78;;;19.96;74.37
76114;BME280;64845;53.086;5.834;2023-06-22T07:23:53;102028.88;;;20.04;74.25
76114;BME280;64845;53.086;5.834;2023-06-22T07:26:20;102019.41;;;20.11;74.04
76114;BME280;64845;53.086;5.834;2023-06-22T07:28:45;102013.59;;;20.17;74.13
76114;BME280;64845;53.086;5.834;2023-06-22T07:31:10;102009.56;;;20.25;74.05
76114;BME280;64845;53.086;5.834;2023-06-22T07:33:36;102003.66;;;20.32;73.94
76114;BME280;64845;53.086;5.834;2023-06-22T07:36:01;102007.84;;;20.38;73.78
76114;BME280;64845;53.086;5.834;2023-06-22T07:38:32;101997.56;;;20.43;73.43
76114;BME280;64845;53.086;5.834;2023-06-22T07:40:57;101993.50;;;20.50;73.36
76114;BME280;64845;53.086;5.834;2023-06-22T07:43:23;101995.63;;;20.60;73.16
76114;BME280;64845;53.086;5.834;2023-06-22T07:45:49;101992.34;;;20.69;72.88
76114;BME280;64845;53.086;5.834;2023-06-22T07:48:20;101998.34;;;20.74;72.68
76114;BME280;64845;53.086;5.834;2023-06-22T07:50:46;101992.44;;;20.82;72.22
76114;BME280;64845;53.086;5.834;2023-06-22T07:53:12;101984.88;;;20.87;72.14
76114;BME280;64845;53.086;5.834;2023-06-22T07:55:37;101986.25;;;20.94;72.19
76114;BME280;64845;53.086;5.834;2023-06-22T07:58:02;101989.44;;;21.01;71.88
76114;BME280;64845;53.086;5.834;2023-06-22T08:00:28;101988.16;;;21.07;71.76
76114;BME280;64845;53.086;5.834;2023-06-22T08:02:53;101987.75;;;21.13;71.36
76114;BME280;64845;53.086;5.834;2023-06-22T08:05:19;101996.25;;;21.21;71.14
76114;BME280;64845;53.086;5.834;2023-06-22T08:07:44;101988.50;;;21.29;70.57
76114;BME280;64845;53.086;5.834;2023-06-22T08:10:11;101989.72;;;21.38;70.70
76114;BME280;64845;53.086;5.834;2023-06-22T08:12:36;101987.38;;;21.47;70.34
76114;BME280;64845;53.086;5.834;2023-06-22T08:15:02;101992.16;;;21.56;70.31
76114;BME280;64845;53.086;5.834;2023-06-22T08:17:28;101991.69;;;21.64;69.88
76114;BME280;64845;53.086;5.834;2023-06-22T08:19:53;101992.13;;;21.70;69.90
76114;BME280;64845;53.086;5.834;2023-06-22T08:22:19;101987.06;;;21.79;69.72
76114;BME280;64845;53.086;5.834;2023-06-22T08:24:44;101984.47;;;21.90;69.55
76114;BME280;64845;53.086;5.834;2023-06-22T08:27:10;101991.09;;;21.99;69.18
76114;BME280;64845;53.086;5.834;2023-06-22T08:29:40;101992.31;;;22.08;68.82
76114;BME280;64845;53.086;5.834;2023-06-22T08:32:08;101988.41;;;22.12;68.58
76114;BME280;64845;53.086;5.834;2023-06-22T08:34:34;101996.16;;;22.18;68.03
76114;BME280;64845;53.086;5.834;2023-06-22T08:36:59;101990.50;;;22.21;68.18
76114;BME280;64845;53.086;5.834;2023-06-22T08:39:25;101992.56;;;22.30;67.61
76114;BME280;64845;53.086;5.834;2023-06-22T08:41:51;101985.78;;;22.36;67.38
76114;BME280;64845;53.086;5.834;2023-06-22T08:44:18;101995.41;;;22.42;67.18
76114;BME280;64845;53.086;5.834;2023-06-22T08:46:43;101984.84;;;22.50;66.85
76114;BME280;64845;53.086;5.834;2023-06-22T08:49:09;101986.03;;;22.59;66.78
76114;BME280;64845;53.086;5.834;2023-06-22T08:51:35;101976.34;;;22.68;66.16
76114;BME280;64845;53.086;5.834;2023-06-22T08:54:00;101973.06;;;22.75;66.17
76114;BME280;64845;53.086;5.834;2023-06-22T08:56:26;101975.47;;;22.80;65.89
76114;BME280;64845;53.086;5.834;2023-06-22T08:58:51;101971.41;;;22.86;65.37
76114;BME280;64845;53.086;5.834;2023-06-22T09:01:17;101965.41;;;22.93;64.92
76114;BME280;64845;53.086;5.834;2023-06-22T09:03:42;101964.94;;;23.00;64.70
76114;BME280;64845;53.086;5.834;2023-06-22T09:06:08;101969.06;;;23.05;64.09
76114;BME280;64845;53.086;5.834;2023-06-22T09:08:35;101965.00;;;23.11;63.81
76114;BME280;64845;53.086;5.834;2023-06-22T09:11:00;101956.38;;;23.17;63.24
76114;BME280;64845;53.086;5.834;2023-06-22T09:13:26;101950.53;;;23.23;63.03
76114;BME280;64845;53.086;5.834;2023-06-22T09:15:51;101945.34;;;23.32;62.51
76114;BME280;64845;53.086;5.834;2023-06-22T09:18:17;101940.94;;;23.42;62.42
76114;BME280;64845;53.086;5.834;2023-06-22T09:20:43;101940.44;;;23.48;62.10
76114;BME280;64845;53.086;5.834;2023-06-22T09:23:08;101946.28;;;23.55;61.91
76114;BME280;64845;53.086;5.834;2023-06-22T09:25:34;101937.56;;;23.63;61.85
76114;BME280;64845;53.086;5.834;2023-06-22T09:27:59;101941.75;;;23.67;61.43
76114;BME280;64845;53.086;5.834;2023-06-22T09:30:24;101938.56;;;23.73;61.16
76114;BME280;64845;53.086;5.834;2023-06-22T09:32:50;101933.63;;;23.78;60.67
76114;BME280;64845;53.086;5.834;2023-06-22T09:35:15;101926.59;;;23.87;60.64
76114;BME280;64845;53.086;5.834;2023-06-22T09:37:41;101932.28;;;23.95;60.64
76114;BME280;64845;53.086;5.834;2023-06-22T09:40:07;101939.03;;;24.03;60.22
76114;BME280;64845;53.086;5.834;2023-06-22T09:42:37;101942.91;;;24.11;60.09
76114;BME280;64845;53.086;5.834;2023-06-22T09:45:03;101943.03;;;24.21;60.24
76114;BME280;64845;53.086;5.834;2023-06-22T09:47:29;101937.84;;;24.29;59.97
76114;BME280;64845;53.086;5.834;2023-06-22T09:49:54;101928.16;;;24.37;59.95
76114;BME280;64845;53.086;5.834;2023-06-22T09:52:23;101924.69;;;24.46;59.68
76114;BME280;64845;53.086;5.834;2023-06-22T09:54:49;101924.16;;;24.52;59.24
76114;BME280;64845;53.086;5.834;2023-06-22T09:57:14;101929.88;;;24.60;58.64
76114;BME280;64845;53.086;5.834;2023-06-22T09:59:39;101931.22;;;24.66;58.50
76114;BME280;64845;53.086;5.834;2023-06-22T10:02:06;101934.25;;;24.74;58.19
76114;BME280;64845;53.086;5.834;2023-06-22T10:04:33;101935.47;;;24.82;58.00
76114;BME280;64845;53.086;5.834;2023-06-22T10:06:58;101934.47;;;24.94;58.13
76114;BME280;64845;53.086;5.834;2023-06-22T10:09:24;101928.97;;;25.05;57.97
76114;BME280;64845;53.086;5.834;2023-06-22T10:11:49;101915.53;;;25.14;57.80
76114;BME280;64845;53.086;5.834;2023-06-22T10:14:14;101914.00;;;25.21;57.30
76114;BME280;64845;53.086;5.834;2023-06-22T10:16:40;101911.00;;;25.24;56.95
76114;BME280;64845;53.086;5.834;2023-06-22T10:19:06;101914.09;;;25.31;56.82
76114;BME280;64845;53.086;5.834;2023-06-22T10:21:31;101903.50;;;25.38;57.02
76114;BME280;64845;53.086;5.834;2023-06-22T10:23:58;101901.25;;;25.43;56.73
76114;BME280;64845;53.086;5.834;2023-06-22T10:26:24;101889.06;;;25.47;56.20
76114;BME280;64845;53.086;5.834;2023-06-22T10:28:50;101898.75;;;25.51;56.20
76114;BME280;64845;53.086;5.834;2023-06-22T10:31:15;101901.81;;;25.58;56.16
76114;BME280;64845;53.086;5.834;2023-06-22T10:33:41;101895.69;;;25.65;55.55
76114;BME280;64845;53.086;5.834;2023-06-22T10:36:09;101893.16;;;25.74;55.21
76114;BME280;64845;53.086;5.834;2023-06-22T10:38:34;101901.53;;;25.82;55.35
76114;BME280;64845;53.086;5.834;2023-06-22T10:41:00;101900.59;;;25.93;54.92
76114;BME280;64845;53.086;5.834;2023-06-22T10:43:25;101892.44;;;26.03;54.89
76114;BME280;64845;53.086;5.834;2023-06-22T10:45:50;101882.69;;;26.10;54.44
76114;BME280;64845;53.086;5.834;2023-06-22T10:48:16;101896.63;;;26.18;54.46
76114;BME280;64845;53.086;5.834;2023-06-22T10:50:41;101891.84;;;26.20;53.86
76114;BME280;64845;53.086;5.834;2023-06-22T10:53:06;101897.19;;;26.22;53.76
76114;BME280;64845;53.086;5.834;2023-06-22T10:55:32;101889.44;;;26.27;53.71
76114;BME280;64845;53.086;5.834;2023-06-22T10:57:57;101882.53;;;26.33;53.37
76114;BME280;64845;53.086;5.834;2023-06-22T11:00:22;101879.06;;;26.31;53.06
76114;BME280;64845;53.086;5.834;2023-06-22T11:02:48;101873.44;;;26.32;52.79
76114;BME280;64845;53.086;5.834;2023-06-22T11:05:13;101876.78;;;26.36;52.63
76114;BME280;64845;53.086;5.834;2023-06-22T11:07:43;101878.09;;;26.42;52.23
76114;BME280;64845;53.086;5.834;2023-06-22T11:10:09;101874.81;;;26.48;52.00
76114;BME280;64845;53.086;5.834;2023-06-22T11:12:35;101865.16;;;26.53;51.68
76114;BME280;64845;53.086;5.834;2023-06-22T11:15:01;101881.88;;;26.50;51.58
76114;BME280;64845;53.086;5.834;2023-06-22T11:17:26;101875.41;;;26.51;51.27
76114;BME280;64845;53.086;5.834;2023-06-22T11:19:52;101875.53;;;26.50;50.91
76114;BME280;64845;53.086;5.834;2023-06-22T11:22:17;101878.13;;;26.51;50.94
76114;BME280;64845;53.086;5.834;2023-06-22T11:24:42;101877.72;;;26.56;50.95
76114;BME280;64845;53.086;5.834;2023-06-22T11:27:08;101882.63;;;26.62;50.89
76114;BME280;64845;53.086;5.834;2023-06-22T11:29:33;101881.19;;;26.68;50.58
76114;BME280;64845;53.086;5.834;2023-06-22T11:31:59;101885.13;;;26.75;50.26
76114;BME280;64845;53.086;5.834;2023-06-22T11:34:24;101881.06;;;26.79;49.85
76114;BME280;64845;53.086;5.834;2023-06-22T11:36:49;101872.47;;;26.84;49.80
76114;BME280;64845;53.086;5.834;2023-06-22T11:39:15;101877.38;;;26.90;49.61
76114;BME280;64845;53.086;5.834;2023-06-22T11:41:41;101873.06;;;26.97;49.63
76114;BME280;64845;53.086;5.834;2023-06-22T11:44:07;101865.13;;;27.04;49.64
76114;BME280;64845;53.086;5.834;2023-06-22T11:46:33;101860.94;;;27.10;49.17
76114;BME280;64845;53.086;5.834;2023-06-22T11:48:58;101859.94;;;27.11;49.30
76114;BME280;64845;53.086;5.834;2023-06-22T11:51:23;101852.00;;;27.08;48.79
76114;BME280;64845;53.086;5.834;2023-06-22T11:53:49;101857.19;;;27.01;48.75
76114;BME280;64845;53.086;5.834;2023-06-22T11:56:14;101849.41;;;26.96;48.73
76114;BME280;64845;53.086;5.834;2023-06-22T11:58:39;101845.50;;;26.89;48.29
76114;BME280;64845;53.086;5.834;2023-06-22T12:01:05;101844.91;;;26.85;48.38
76114;BME280;64845;53.086;5.834;2023-06-22T12:03:30;101859.16;;;26.79;48.35
76114;BME280;64845;53.086;5.834;2023-06-22T12:05:56;101853.25;;;26.74;48.28
76114;BME280;64845;53.086;5.834;2023-06-22T12:08:21;101854.66;;;26.68;48.23
76114;BME280;64845;53.086;5.834;2023-06-22T12:10:47;101859.44;;;26.66;48.41
76114;BME280;64845;53.086;5.834;2023-06-22T12:13:13;101850.63;;;26.63;48.28
76114;BME280;64845;53.086;5.834;2023-06-22T12:15:38;101847.16;;;26.61;48.50
76114;BME280;64845;53.086;5.834;2023-06-22T12:18:04;101846.72;;;26.55;48.20
76114;BME280;64845;53.086;5.834;2023-06-22T12:20:29;101835.44;;;26.49;48.63
76114;BME280;64845;53.086;5.834;2023-06-22T12:22:54;101833.00;;;26.46;48.72
76114;BME280;64845;53.086;5.834;2023-06-22T12:25:23;101841.22;;;26.46;49.00
76114;BME280;64845;53.086;5.834;2023-06-22T12:27:48;101825.91;;;26.43;49.50
76114;BME280;64845;53.086;5.834;2023-06-22T12:30:16;101822.03;;;26.36;49.34
76114;BME280;64845;53.086;5.834;2023-06-22T12:32:41;101824.59;;;26.28;49.80
76114;BME280;64845;53.086;5.834;2023-06-22T12:35:07;101819.53;;;26.23;49.77
76114;BME280;64845;53.086;5.834;2023-06-22T12:37:37;101821.66;;;26.19;50.14
76114;BME280;64845;53.086;5.834;2023-06-22T12:40:02;101817.22;;;26.18;50.32
76114;BME280;64845;53.086;5.834;2023-06-22T12:42:29;101821.09;;;26.16;50.53
76114;BME280;64845;53.086;5.834;2023-06-22T12:44:54;101824.09;;;26.13;50.54
76114;BME280;64845;53.086;5.834;2023-06-22T12:47:20;101815.13;;;26.10;50.99
76114;BME280;64845;53.086;5.834;2023-06-22T12:49:45;101820.75;;;26.09;50.75
76114;BME280;64845;53.086;5.834;2023-06-22T12:52:11;101823.03;;;26.04;51.06